sensor_id;sensor_type;location;lat;lon;timestamp;P1;durP1;ratioP1;P2;durP2;ratioP2
61640;SDS011;62201;49.966;8.342;2024-03-07T00:01:40;37.40;;;24.93;;
61640;SDS011;62201;49.966;8.342;2024-03-07T00:04:05;36.60;;;25.53;;
61640;SDS011;62201;49.966;8.342;2024-03-07T00:06:31;36.33;;;24.23;;
61640;SDS011;62201;49.966;8.342;2024-03-07T00:08:56;39.57;;;26.37;;
61640;SDS011;62201;49.966;8.342;2024-03-07T00:11:21;40.20;;;27.53;;
61640;SDS011;62201;49.966;8.342;2024-03-07T00:13:47;37.43;;;25.60;;
61640;SDS011;62201;49.966;8.342;2024-03-07T00:16:12;35.30;;;25.00;;
61640;SDS011;62201;49.966;8.342;2024-03-07T00:18:38;40.10;;;25.03;;
61640;SDS011;62201;49.966;8.342;2024-03-07T00:21:04;39.40;;;25.07;;
61640;SDS011;62201;49.966;8.342;2024-03-07T00:23:29;36.47;;;25.10;;
61640;SDS011;62201;49.966;8.342;2024-03-07T00:25:56;36.57;;;25.93;;
61640;SDS011;62201;49.966;8.342;2024-03-07T00:28:22;54.10;;;26.67;;
61640;SDS011;62201;49.966;8.342;2024-03-07T00:30:47;38.43;;;25.43;;
61640;SDS011;62201;49.966;8.342;2024-03-07T00:33:13;36.07;;;25.10;;
61640;SDS011;62201;49.966;8.342;2024-03-07T00:35:38;32.97;;;24.07;;
61640;SDS011;62201;49.966;8.342;2024-03-07T00:38:04;39.00;;;25.80;;
61640;SDS011;62201;49.966;8.342;2024-03-07T00:40:30;41.37;;;26.37;;
61640;SDS011;62201;49.966;8.342;2024-03-07T00:42:57;39.17;;;26.30;;
61640;SDS011;62201;49.966;8.342;2024-03-07T00:45:24;40.20;;;25.77;;
61640;SDS011;62201;49.966;8.342;2024-03-07T00:47:49;36.20;;;25.50;;
61640;SDS011;62201;49.966;8.342;2024-03-07T00:50:14;36.30;;;25.67;;
61640;SDS011;62201;49.966;8.342;2024-03-07T00:52:41;41.30;;;26.13;;
61640;SDS011;62201;49.966;8.342;2024-03-07T00:55:06;38.87;;;25.50;;
61640;SDS011;62201;49.966;8.342;2024-03-07T00:57:35;37.00;;;25.23;;
61640;SDS011;62201;49.966;8.342;2024-03-07T01:00:01;36.93;;;25.23;;
61640;SDS011;62201;49.966;8.342;2024-03-07T01:02:27;40.53;;;26.30;;
61640;SDS011;62201;49.966;8.342;2024-03-07T01:04:53;36.97;;;26.90;;
61640;SDS011;62201;49.966;8.342;2024-03-07T01:07:19;41.63;;;27.13;;
61640;SDS011;62201;49.966;8.342;2024-03-07T01:09:46;41.50;;;27.30;;
61640;SDS011;62201;49.966;8.342;2024-03-07T01:12:11;39.57;;;27.20;;
61640;SDS011;62201;49.966;8.342;2024-03-07T01:14:37;38.17;;;26.63;;
61640;SDS011;62201;49.966;8.342;2024-03-07T01:17:02;41.60;;;26.73;;
61640;SDS011;62201;49.966;8.342;2024-03-07T01:19:27;41.87;;;28.33;;
61640;SDS011;62201;49.966;8.342;2024-03-07T01:21:53;39.87;;;27.07;;
61640;SDS011;62201;49.966;8.342;2024-03-07T01:24:18;39.13;;;27.83;;
61640;SDS011;62201;49.966;8.342;2024-03-07T01:26:45;42.03;;;29.23;;
61640;SDS011;62201;49.966;8.342;2024-03-07T01:29:10;44.37;;;28.90;;
61640;SDS011;62201;49.966;8.342;2024-03-07T01:31:36;40.73;;;28.27;;
61640;SDS011;62201;49.966;8.342;2024-03-07T01:34:01;42.70;;;29.13;;
61640;SDS011;62201;49.966;8.342;2024-03-07T01:36:27;42.70;;;28.87;;
61640;SDS011;62201;49.966;8.342;2024-03-07T01:38:52;43.50;;;29.23;;
61640;SDS011;62201;49.966;8.342;2024-03-07T01:41:17;43.60;;;29.43;;
61640;SDS011;62201;49.966;8.342;2024-03-07T01:43:44;47.43;;;29.23;;
61640;SDS011;62201;49.966;8.342;2024-03-07T01:46:09;45.60;;;29.90;;
61640;SDS011;62201;49.966;8.342;2024-03-07T01:48:35;46.87;;;29.27;;
61640;SDS011;62201;49.966;8.342;2024-03-07T01:51:03;50.23;;;30.83;;
61640;SDS011;62201;49.966;8.342;2024-03-07T01:53:29;46.00;;;30.13;;
61640;SDS011;62201;49.966;8.342;2024-03-07T01:55:58;47.27;;;30.63;;
61640;SDS011;62201;49.966;8.342;2024-03-07T01:58:25;47.70;;;29.63;;
61640;SDS011;62201;49.966;8.342;2024-03-07T02:00:51;47.07;;;29.83;;
61640;SDS011;62201;49.966;8.342;2024-03-07T02:03:16;45.83;;;30.00;;
61640;SDS011;62201;49.966;8.342;2024-03-07T02:05:42;46.50;;;30.43;;
61640;SDS011;62201;49.966;8.342;2024-03-07T02:08:08;41.93;;;29.33;;
61640;SDS011;62201;49.966;8.342;2024-03-07T02:10:33;45.40;;;30.77;;
61640;SDS011;62201;49.966;8.342;2024-03-07T02:12:58;44.27;;;30.30;;
61640;SDS011;62201;49.966;8.342;2024-03-07T02:15:25;43.83;;;29.13;;
61640;SDS011;62201;49.966;8.342;2024-03-07T02:17:51;44.03;;;29.87;;
61640;SDS011;62201;49.966;8.342;2024-03-07T02:20:17;45.77;;;29.93;;
61640;SDS011;62201;49.966;8.342;2024-03-07T02:22:42;48.57;;;30.00;;
61640;SDS011;62201;49.966;8.342;2024-03-07T02:25:08;45.77;;;29.77;;
61640;SDS011;62201;49.966;8.342;2024-03-07T02:27:36;46.80;;;30.40;;
61640;SDS011;62201;49.966;8.342;2024-03-07T02:30:02;48.57;;;30.50;;
61640;SDS011;62201;49.966;8.342;2024-03-07T02:32:28;48.70;;;31.00;;
61640;SDS011;62201;49.966;8.342;2024-03-07T02:34:53;45.80;;;30.70;;
61640;SDS011;62201;49.966;8.342;2024-03-07T02:37:19;49.13;;;31.10;;
61640;SDS011;62201;49.966;8.342;2024-03-07T02:39:44;48.67;;;31.80;;
61640;SDS011;62201;49.966;8.342;2024-03-07T02:42:10;49.63;;;32.73;;
61640;SDS011;62201;49.966;8.342;2024-03-07T02:44:36;47.53;;;31.13;;
61640;SDS011;62201;49.966;8.342;2024-03-07T02:47:03;44.23;;;29.33;;
61640;SDS011;62201;49.966;8.342;2024-03-07T02:49:29;45.40;;;29.27;;
61640;SDS011;62201;49.966;8.342;2024-03-07T02:51:55;43.73;;;29.80;;
61640;SDS011;62201;49.966;8.342;2024-03-07T02:54:20;47.60;;;30.20;;
61640;SDS011;62201;49.966;8.342;2024-03-07T02:56:45;43.60;;;29.30;;
61640;SDS011;62201;49.966;8.342;2024-03-07T02:59:11;45.07;;;29.60;;
61640;SDS011;62201;49.966;8.342;2024-03-07T03:01:36;48.40;;;30.10;;
61640;SDS011;62201;49.966;8.342;2024-03-07T03:04:02;43.10;;;27.20;;
61640;SDS011;62201;49.966;8.342;2024-03-07T03:06:27;40.77;;;27.87;;
61640;SDS011;62201;49.966;8.342;2024-03-07T03:08:53;41.03;;;28.13;;
61640;SDS011;62201;49.966;8.342;2024-03-07T03:11:19;38.47;;;26.97;;
61640;SDS011;62201;49.966;8.342;2024-03-07T03:13:45;38.60;;;27.37;;
61640;SDS011;62201;49.966;8.342;2024-03-07T03:16:12;43.00;;;28.50;;
61640;SDS011;62201;49.966;8.342;2024-03-07T03:18:38;46.10;;;26.60;;
61640;SDS011;62201;49.966;8.342;2024-03-07T03:21:03;41.70;;;26.07;;
61640;SDS011;62201;49.966;8.342;2024-03-07T03:23:31;44.23;;;26.47;;
61640;SDS011;62201;49.966;8.342;2024-03-07T03:25:56;44.40;;;27.43;;
61640;SDS011;62201;49.966;8.342;2024-03-07T03:28:22;41.23;;;25.93;;
61640;SDS011;62201;49.966;8.342;2024-03-07T03:30:48;40.53;;;27.80;;
61640;SDS011;62201;49.966;8.342;2024-03-07T03:33:14;39.50;;;26.03;;
61640;SDS011;62201;49.966;8.342;2024-03-07T03:35:40;38.67;;;25.80;;
61640;SDS011;62201;49.966;8.342;2024-03-07T03:38:06;38.67;;;25.80;;
61640;SDS011;62201;49.966;8.342;2024-03-07T03:40:32;38.13;;;25.37;;
61640;SDS011;62201;49.966;8.342;2024-03-07T03:42:58;42.30;;;27.27;;
61640;SDS011;62201;49.966;8.342;2024-03-07T03:45:23;37.07;;;25.40;;
61640;SDS011;62201;49.966;8.342;2024-03-07T03:47:50;39.30;;;25.33;;
61640;SDS011;62201;49.966;8.342;2024-03-07T03:50:16;39.13;;;25.70;;
61640;SDS011;62201;49.966;8.342;2024-03-07T03:52:43;37.53;;;25.27;;
61640;SDS011;62201;49.966;8.342;2024-03-07T03:55:08;36.00;;;24.27;;
61640;SDS011;62201;49.966;8.342;2024-03-07T03:57:38;42.07;;;25.37;;
61640;SDS011;62201;49.966;8.342;2024-03-07T04:00:05;38.93;;;24.13;;
61640;SDS011;62201;49.966;8.342;2024-03-07T04:05:06;37.00;;;24.10;;
61640;SDS011;62201;49.966;8.342;2024-03-07T04:07:34;37.50;;;24.27;;
61640;SDS011;62201;49.966;8.342;2024-03-07T04:10:00;35.67;;;23.97;;
61640;SDS011;62201;49.966;8.342;2024-03-07T04:12:28;37.53;;;23.70;;
61640;SDS011;62201;49.966;8.342;2024-03-07T04:14:53;37.43;;;25.60;;
61640;SDS011;62201;49.966;8.342;2024-03-07T04:17:21;39.50;;;25.27;;
61640;SDS011;62201;49.966;8.342;2024-03-07T04:19:47;37.47;;;23.57;;
61640;SDS011;62201;49.966;8.342;2024-03-07T04:22:13;40.00;;;23.97;;
61640;SDS011;62201;49.966;8.342;2024-03-07T04:24:39;40.80;;;24.57;;
61640;SDS011;62201;49.966;8.342;2024-03-07T04:27:05;36.43;;;23.90;;
61640;SDS011;62201;49.966;8.342;2024-03-07T04:29:31;35.67;;;23.90;;
61640;SDS011;62201;49.966;8.342;2024-03-07T04:32:00;37.13;;;23.90;;
61640;SDS011;62201;49.966;8.342;2024-03-07T04:34:26;34.47;;;23.30;;
61640;SDS011;62201;49.966;8.342;2024-03-07T04:36:55;37.17;;;24.20;;
61640;SDS011;62201;49.966;8.342;2024-03-07T04:39:26;33.57;;;23.27;;
61640;SDS011;62201;49.966;8.342;2024-03-07T04:42:04;35.30;;;23.80;;
61640;SDS011;62201;49.966;8.342;2024-03-07T04:44:31;33.20;;;21.97;;
61640;SDS011;62201;49.966;8.342;2024-03-07T04:46:57;33.53;;;23.10;;
61640;SDS011;62201;49.966;8.342;2024-03-07T04:49:25;33.53;;;23.93;;
61640;SDS011;62201;49.966;8.342;2024-03-07T04:51:55;36.33;;;23.40;;
61640;SDS011;62201;49.966;8.342;2024-03-07T04:54:23;34.23;;;23.53;;
61640;SDS011;62201;49.966;8.342;2024-03-07T04:56:49;37.13;;;22.23;;
61640;SDS011;62201;49.966;8.342;2024-03-07T04:59:17;34.93;;;22.90;;
61640;SDS011;62201;49.966;8.342;2024-03-07T05:01:43;38.23;;;22.47;;
61640;SDS011;62201;49.966;8.342;2024-03-07T05:04:09;33.33;;;23.57;;
61640;SDS011;62201;49.966;8.342;2024-03-07T05:06:36;36.50;;;23.57;;
61640;SDS011;62201;49.966;8.342;2024-03-07T05:09:02;36.87;;;23.57;;
61640;SDS011;62201;49.966;8.342;2024-03-07T05:11:29;38.00;;;24.67;;
61640;SDS011;62201;49.966;8.342;2024-03-07T05:13:55;36.97;;;23.63;;
61640;SDS011;62201;49.966;8.342;2024-03-07T05:16:20;38.47;;;24.67;;
61640;SDS011;62201;49.966;8.342;2024-03-07T05:18:46;38.63;;;24.40;;
61640;SDS011;62201;49.966;8.342;2024-03-07T05:21:11;33.33;;;23.33;;
61640;SDS011;62201;49.966;8.342;2024-03-07T05:23:56;37.17;;;24.93;;
61640;SDS011;62201;49.966;8.342;2024-03-07T05:26:22;39.03;;;25.37;;
61640;SDS011;62201;49.966;8.342;2024-03-07T05:28:48;39.83;;;24.90;;
61640;SDS011;62201;49.966;8.342;2024-03-07T05:31:13;40.77;;;26.60;;
61640;SDS011;62201;49.966;8.342;2024-03-07T05:33:39;44.27;;;26.13;;
61640;SDS011;62201;49.966;8.342;2024-03-07T05:36:05;42.90;;;27.13;;
61640;SDS011;62201;49.966;8.342;2024-03-07T05:38:44;44.47;;;27.73;;
61640;SDS011;62201;49.966;8.342;2024-03-07T05:41:10;42.53;;;26.63;;
61640;SDS011;62201;49.966;8.342;2024-03-07T05:43:36;37.90;;;25.47;;
61640;SDS011;62201;49.966;8.342;2024-03-07T05:46:01;38.33;;;23.47;;
61640;SDS011;62201;49.966;8.342;2024-03-07T05:48:28;38.80;;;24.50;;
61640;SDS011;62201;49.966;8.342;2024-03-07T05:50:53;35.50;;;23.83;;
61640;SDS011;62201;49.966;8.342;2024-03-07T05:53:19;38.80;;;22.93;;
61640;SDS011;62201;49.966;8.342;2024-03-07T05:55:44;32.97;;;24.50;;
61640;SDS011;62201;49.966;8.342;2024-03-07T05:58:10;35.57;;;24.10;;
61640;SDS011;62201;49.966;8.342;2024-03-07T06:00:36;34.60;;;24.13;;
61640;SDS011;62201;49.966;8.342;2024-03-07T06:03:03;37.73;;;22.87;;
61640;SDS011;62201;49.966;8.342;2024-03-07T06:05:29;36.97;;;23.67;;
61640;SDS011;62201;49.966;8.342;2024-03-07T06:07:55;35.00;;;24.07;;
61640;SDS011;62201;49.966;8.342;2024-03-07T06:10:21;38.60;;;23.63;;
61640;SDS011;62201;49.966;8.342;2024-03-07T06:12:49;33.17;;;21.70;;
61640;SDS011;62201;49.966;8.342;2024-03-07T06:15:15;32.00;;;22.27;;
61640;SDS011;62201;49.966;8.342;2024-03-07T06:17:41;32.93;;;22.93;;
61640;SDS011;62201;49.966;8.342;2024-03-07T06:20:06;36.23;;;23.13;;
61640;SDS011;62201;49.966;8.342;2024-03-07T06:22:47;34.97;;;22.67;;
61640;SDS011;62201;49.966;8.342;2024-03-07T06:25:13;41.47;;;23.97;;
61640;SDS011;62201;49.966;8.342;2024-03-07T06:27:44;34.63;;;23.30;;
61640;SDS011;62201;49.966;8.342;2024-03-07T06:30:13;36.67;;;23.27;;
61640;SDS011;62201;49.966;8.342;2024-03-07T06:32:41;37.83;;;23.23;;
61640;SDS011;62201;49.966;8.342;2024-03-07T06:35:06;36.70;;;24.00;;
61640;SDS011;62201;49.966;8.342;2024-03-07T06:37:32;33.07;;;23.07;;
61640;SDS011;62201;49.966;8.342;2024-03-07T06:39:58;32.77;;;21.93;;
61640;SDS011;62201;49.966;8.342;2024-03-07T06:42:23;32.47;;;22.43;;
61640;SDS011;62201;49.966;8.342;2024-03-07T06:44:48;37.27;;;22.60;;
61640;SDS011;62201;49.966;8.342;2024-03-07T06:47:14;29.07;;;21.53;;
61640;SDS011;62201;49.966;8.342;2024-03-07T06:49:39;32.43;;;22.37;;
61640;SDS011;62201;49.966;8.342;2024-03-07T06:52:05;39.10;;;22.27;;
61640;SDS011;62201;49.966;8.342;2024-03-07T06:54:30;36.80;;;22.27;;
61640;SDS011;62201;49.966;8.342;2024-03-07T06:56:56;31.83;;;21.73;;
61640;SDS011;62201;49.966;8.342;2024-03-07T06:59:22;31.27;;;22.30;;
61640;SDS011;62201;49.966;8.342;2024-03-07T07:01:47;34.00;;;22.83;;
61640;SDS011;62201;49.966;8.342;2024-03-07T07:04:12;32.40;;;22.07;;
61640;SDS011;62201;49.966;8.342;2024-03-07T07:06:40;31.63;;;21.57;;
61640;SDS011;62201;49.966;8.342;2024-03-07T07:09:07;32.77;;;21.10;;
61640;SDS011;62201;49.966;8.342;2024-03-07T07:11:34;34.50;;;20.80;;
61640;SDS011;62201;49.966;8.342;2024-03-07T07:13:59;33.70;;;21.97;;
61640;SDS011;62201;49.966;8.342;2024-03-07T07:16:27;34.43;;;22.67;;
61640;SDS011;62201;49.966;8.342;2024-03-07T07:18:54;29.97;;;20.97;;
61640;SDS011;62201;49.966;8.342;2024-03-07T07:21:20;30.03;;;21.07;;
61640;SDS011;62201;49.966;8.342;2024-03-07T07:23:46;33.23;;;21.77;;
61640;SDS011;62201;49.966;8.342;2024-03-07T07:26:11;34.10;;;21.40;;
61640;SDS011;62201;49.966;8.342;2024-03-07T07:28:37;32.93;;;21.00;;
61640;SDS011;62201;49.966;8.342;2024-03-07T07:31:03;33.07;;;21.83;;
61640;SDS011;62201;49.966;8.342;2024-03-07T07:33:29;28.07;;;21.00;;
61640;SDS011;62201;49.966;8.342;2024-03-07T07:35:56;32.07;;;20.40;;
61640;SDS011;62201;49.966;8.342;2024-03-07T07:38:22;27.97;;;20.07;;
61640;SDS011;62201;49.966;8.342;2024-03-07T07:40:47;32.60;;;20.13;;
61640;SDS011;62201;49.966;8.342;2024-03-07T07:43:13;27.13;;;19.87;;
61640;SDS011;62201;49.966;8.342;2024-03-07T07:45:38;27.50;;;18.97;;
61640;SDS011;62201;49.966;8.342;2024-03-07T07:48:04;29.00;;;20.33;;
61640;SDS011;62201;49.966;8.342;2024-03-07T07:50:30;24.10;;;19.37;;
61640;SDS011;62201;49.966;8.342;2024-03-07T07:52:58;29.90;;;19.77;;
61640;SDS011;62201;49.966;8.342;2024-03-07T07:55:27;27.83;;;18.60;;
61640;SDS011;62201;49.966;8.342;2024-03-07T07:57:53;26.47;;;18.87;;
61640;SDS011;62201;49.966;8.342;2024-03-07T08:00:21;29.93;;;20.37;;
61640;SDS011;62201;49.966;8.342;2024-03-07T08:02:57;30.73;;;18.43;;
61640;SDS011;62201;49.966;8.342;2024-03-07T08:05:27;26.13;;;18.50;;
61640;SDS011;62201;49.966;8.342;2024-03-07T08:07:57;29.67;;;18.23;;
61640;SDS011;62201;49.966;8.342;2024-03-07T08:10:25;24.17;;;17.33;;
61640;SDS011;62201;49.966;8.342;2024-03-07T08:12:53;32.77;;;18.33;;
61640;SDS011;62201;49.966;8.342;2024-03-07T08:15:19;26.00;;;17.77;;
61640;SDS011;62201;49.966;8.342;2024-03-07T08:17:45;24.93;;;17.70;;
61640;SDS011;62201;49.966;8.342;2024-03-07T08:20:12;24.37;;;17.33;;
61640;SDS011;62201;49.966;8.342;2024-03-07T08:22:43;26.40;;;18.23;;
61640;SDS011;62201;49.966;8.342;2024-03-07T08:25:10;22.90;;;17.40;;
61640;SDS011;62201;49.966;8.342;2024-03-07T08:27:37;25.07;;;16.70;;
61640;SDS011;62201;49.966;8.342;2024-03-07T08:30:04;23.73;;;16.90;;
61640;SDS011;62201;49.966;8.342;2024-03-07T08:32:32;26.10;;;17.07;;
61640;SDS011;62201;49.966;8.342;2024-03-07T08:35:01;22.27;;;16.40;;
61640;SDS011;62201;49.966;8.342;2024-03-07T08:37:31;23.47;;;16.50;;
61640;SDS011;62201;49.966;8.342;2024-03-07T08:39:57;22.17;;;16.23;;
61640;SDS011;62201;49.966;8.342;2024-03-07T08:42:22;22.53;;;15.23;;
61640;SDS011;62201;49.966;8.342;2024-03-07T08:44:48;18.37;;;14.20;;
61640;SDS011;62201;49.966;8.342;2024-03-07T08:47:13;19.27;;;14.23;;
61640;SDS011;62201;49.966;8.342;2024-03-07T08:49:38;30.20;;;14.07;;
61640;SDS011;62201;49.966;8.342;2024-03-07T08:52:04;22.67;;;15.37;;
61640;SDS011;62201;49.966;8.342;2024-03-07T08:54:31;21.08;;;15.23;;
61640;SDS011;62201;49.966;8.342;2024-03-07T08:56:58;19.13;;;13.43;;
61640;SDS011;62201;49.966;8.342;2024-03-07T08:59:24;20.97;;;13.97;;
61640;SDS011;62201;49.966;8.342;2024-03-07T09:01:49;24.38;;;14.18;;
61640;SDS011;62201;49.966;8.342;2024-03-07T09:04:15;18.00;;;13.68;;
61640;SDS011;62201;49.966;8.342;2024-03-07T09:06:42;19.40;;;14.25;;
61640;SDS011;62201;49.966;8.342;2024-03-07T09:09:09;14.75;;;12.25;;
61640;SDS011;62201;49.966;8.342;2024-03-07T09:11:35;15.52;;;12.10;;
61640;SDS011;62201;49.966;8.342;2024-03-07T09:14:01;17.98;;;12.82;;
61640;SDS011;62201;49.966;8.342;2024-03-07T09:16:27;18.10;;;11.85;;
61640;SDS011;62201;49.966;8.342;2024-03-07T09:18:52;20.88;;;12.43;;
61640;SDS011;62201;49.966;8.342;2024-03-07T09:21:18;16.75;;;12.38;;
61640;SDS011;62201;49.966;8.342;2024-03-07T09:23:43;19.90;;;11.83;;
61640;SDS011;62201;49.966;8.342;2024-03-07T09:26:08;20.37;;;12.90;;
61640;SDS011;62201;49.966;8.342;2024-03-07T09:28:34;18.20;;;13.23;;
61640;SDS011;62201;49.966;8.342;2024-03-07T09:30:59;19.63;;;13.20;;
61640;SDS011;62201;49.966;8.342;2024-03-07T09:33:24;17.90;;;13.13;;
61640;SDS011;62201;49.966;8.342;2024-03-07T09:35:50;20.70;;;13.43;;
61640;SDS011;62201;49.966;8.342;2024-03-07T09:38:15;19.13;;;12.70;;
61640;SDS011;62201;49.966;8.342;2024-03-07T09:40:40;16.13;;;12.23;;
61640;SDS011;62201;49.966;8.342;2024-03-07T09:43:06;21.47;;;14.77;;
61640;SDS011;62201;49.966;8.342;2024-03-07T09:45:34;19.80;;;14.40;;
61640;SDS011;62201;49.966;8.342;2024-03-07T09:48:00;19.00;;;13.23;;
61640;SDS011;62201;49.966;8.342;2024-03-07T09:50:29;19.87;;;13.97;;
61640;SDS011;62201;49.966;8.342;2024-03-07T09:52:55;19.73;;;14.38;;
61640;SDS011;62201;49.966;8.342;2024-03-07T09:55:21;24.23;;;14.60;;
61640;SDS011;62201;49.966;8.342;2024-03-07T09:57:49;20.60;;;14.52;;
61640;SDS011;62201;49.966;8.342;2024-03-07T10:00:18;23.73;;;14.75;;
61640;SDS011;62201;49.966;8.342;2024-03-07T10:02:48;19.00;;;14.02;;
61640;SDS011;62201;49.966;8.342;2024-03-07T10:05:18;28.30;;;14.02;;
61640;SDS011;62201;49.966;8.342;2024-03-07T10:07:44;21.15;;;12.95;;
61640;SDS011;62201;49.966;8.342;2024-03-07T10:10:10;18.13;;;14.07;;
61640;SDS011;62201;49.966;8.342;2024-03-07T10:12:37;18.65;;;13.68;;
61640;SDS011;62201;49.966;8.342;2024-03-07T10:15:03;23.48;;;14.40;;
61640;SDS011;62201;49.966;8.342;2024-03-07T10:17:30;16.92;;;13.55;;
61640;SDS011;62201;49.966;8.342;2024-03-07T10:19:57;17.08;;;13.65;;
61640;SDS011;62201;49.966;8.342;2024-03-07T10:22:24;18.42;;;13.93;;
61640;SDS011;62201;49.966;8.342;2024-03-07T10:24:53;18.85;;;13.90;;
61640;SDS011;62201;49.966;8.342;2024-03-07T10:27:21;18.50;;;13.43;;
61640;SDS011;62201;49.966;8.342;2024-03-07T10:29:47;17.80;;;13.10;;
61640;SDS011;62201;49.966;8.342;2024-03-07T10:32:18;15.57;;;13.13;;
61640;SDS011;62201;49.966;8.342;2024-03-07T10:34:44;16.83;;;12.98;;
61640;SDS011;62201;49.966;8.342;2024-03-07T10:37:12;20.40;;;13.65;;
61640;SDS011;62201;49.966;8.342;2024-03-07T10:39:41;17.77;;;12.95;;
61640;SDS011;62201;49.966;8.342;2024-03-07T10:42:07;17.88;;;12.60;;
61640;SDS011;62201;49.966;8.342;2024-03-07T10:44:40;17.80;;;12.55;;
61640;SDS011;62201;49.966;8.342;2024-03-07T10:47:15;18.45;;;12.85;;
61640;SDS011;62201;49.966;8.342;2024-03-07T10:49:46;17.00;;;12.50;;
61640;SDS011;62201;49.966;8.342;2024-03-07T10:52:39;20.58;;;13.32;;
61640;SDS011;62201;49.966;8.342;2024-03-07T10:55:34;19.10;;;13.05;;
61640;SDS011;62201;49.966;8.342;2024-03-07T10:58:09;18.65;;;13.38;;
61640;SDS011;62201;49.966;8.342;2024-03-07T11:00:42;16.13;;;12.95;;
61640;SDS011;62201;49.966;8.342;2024-03-07T11:03:11;18.27;;;13.15;;
61640;SDS011;62201;49.966;8.342;2024-03-07T11:05:39;21.10;;;12.80;;
61640;SDS011;62201;49.966;8.342;2024-03-07T11:08:05;16.50;;;13.05;;
61640;SDS011;62201;49.966;8.342;2024-03-07T11:10:36;19.10;;;13.48;;
61640;SDS011;62201;49.966;8.342;2024-03-07T11:13:02;16.90;;;13.50;;
61640;SDS011;62201;49.966;8.342;2024-03-07T11:15:29;25.42;;;14.23;;
61640;SDS011;62201;49.966;8.342;2024-03-07T11:17:57;22.45;;;14.43;;
61640;SDS011;62201;49.966;8.342;2024-03-07T11:20:24;19.80;;;13.70;;
61640;SDS011;62201;49.966;8.342;2024-03-07T11:22:51;17.23;;;13.52;;
61640;SDS011;62201;49.966;8.342;2024-03-07T11:25:19;19.52;;;14.15;;
61640;SDS011;62201;49.966;8.342;2024-03-07T11:30:24;16.20;;;14.07;;
61640;SDS011;62201;49.966;8.342;2024-03-07T11:32:50;20.20;;;14.45;;
61640;SDS011;62201;49.966;8.342;2024-03-07T11:35:20;19.38;;;14.63;;
61640;SDS011;62201;49.966;8.342;2024-03-07T11:38:00;18.83;;;14.18;;
61640;SDS011;62201;49.966;8.342;2024-03-07T11:42:54;18.95;;;14.27;;
61640;SDS011;62201;49.966;8.342;2024-03-07T11:45:24;17.63;;;13.73;;
61640;SDS011;62201;49.966;8.342;2024-03-07T11:47:53;19.95;;;14.43;;
61640;SDS011;62201;49.966;8.342;2024-03-07T11:50:31;16.73;;;12.25;;
61640;SDS011;62201;49.966;8.342;2024-03-07T11:53:00;18.45;;;12.57;;
61640;SDS011;62201;49.966;8.342;2024-03-07T11:55:26;20.75;;;12.32;;
61640;SDS011;62201;49.966;8.342;2024-03-07T11:57:53;16.40;;;12.43;;
61640;SDS011;62201;49.966;8.342;2024-03-07T12:00:19;16.65;;;13.27;;
61640;SDS011;62201;49.966;8.342;2024-03-07T12:02:48;19.10;;;13.82;;
61640;SDS011;62201;49.966;8.342;2024-03-07T12:05:14;18.58;;;12.27;;
61640;SDS011;62201;49.966;8.342;2024-03-07T12:07:41;17.75;;;13.02;;
61640;SDS011;62201;49.966;8.342;2024-03-07T12:10:08;17.92;;;13.23;;
61640;SDS011;62201;49.966;8.342;2024-03-07T12:12:33;16.77;;;13.02;;
61640;SDS011;62201;49.966;8.342;2024-03-07T12:14:59;15.85;;;12.98;;
61640;SDS011;62201;49.966;8.342;2024-03-07T12:17:24;20.48;;;12.63;;
61640;SDS011;62201;49.966;8.342;2024-03-07T12:19:50;19.58;;;13.48;;
61640;SDS011;62201;49.966;8.342;2024-03-07T12:22:18;16.95;;;13.10;;
61640;SDS011;62201;49.966;8.342;2024-03-07T12:24:47;22.08;;;13.23;;
61640;SDS011;62201;49.966;8.342;2024-03-07T12:27:33;17.25;;;13.00;;
61640;SDS011;62201;49.966;8.342;2024-03-07T12:29:58;17.55;;;12.85;;
61640;SDS011;62201;49.966;8.342;2024-03-07T12:32:27;18.88;;;13.18;;
61640;SDS011;62201;49.966;8.342;2024-03-07T12:34:52;18.63;;;12.45;;
61640;SDS011;62201;49.966;8.342;2024-03-07T12:37:17;15.50;;;11.38;;
61640;SDS011;62201;49.966;8.342;2024-03-07T12:39:44;18.83;;;13.18;;
61640;SDS011;62201;49.966;8.342;2024-03-07T12:42:12;15.88;;;12.27;;
61640;SDS011;62201;49.966;8.342;2024-03-07T12:44:45;17.67;;;12.57;;
61640;SDS011;62201;49.966;8.342;2024-03-07T12:47:14;15.68;;;12.02;;
61640;SDS011;62201;49.966;8.342;2024-03-07T12:49:40;18.30;;;12.25;;
61640;SDS011;62201;49.966;8.342;2024-03-07T12:52:06;17.35;;;12.30;;
61640;SDS011;62201;49.966;8.342;2024-03-07T12:54:35;18.38;;;12.45;;
61640;SDS011;62201;49.966;8.342;2024-03-07T12:57:09;16.30;;;12.27;;
61640;SDS011;62201;49.966;8.342;2024-03-07T12:59:35;14.73;;;10.88;;
61640;SDS011;62201;49.966;8.342;2024-03-07T13:02:03;15.30;;;10.88;;
61640;SDS011;62201;49.966;8.342;2024-03-07T13:04:31;15.75;;;11.20;;
61640;SDS011;62201;49.966;8.342;2024-03-07T13:06:57;16.80;;;11.38;;
61640;SDS011;62201;49.966;8.342;2024-03-07T13:09:24;19.25;;;11.30;;
61640;SDS011;62201;49.966;8.342;2024-03-07T13:11:52;14.75;;;10.38;;
61640;SDS011;62201;49.966;8.342;2024-03-07T13:14:18;13.35;;;10.93;;
61640;SDS011;62201;49.966;8.342;2024-03-07T13:16:43;16.30;;;10.40;;
61640;SDS011;62201;49.966;8.342;2024-03-07T13:19:10;12.32;;;9.73;;
61640;SDS011;62201;49.966;8.342;2024-03-07T13:21:37;15.25;;;9.68;;
61640;SDS011;62201;49.966;8.342;2024-03-07T13:24:04;14.63;;;9.75;;
61640;SDS011;62201;49.966;8.342;2024-03-07T13:26:30;12.07;;;9.05;;
61640;SDS011;62201;49.966;8.342;2024-03-07T13:28:56;13.13;;;9.68;;
61640;SDS011;62201;49.966;8.342;2024-03-07T13:31:26;15.20;;;9.45;;
61640;SDS011;62201;49.966;8.342;2024-03-07T13:33:53;11.82;;;8.70;;
61640;SDS011;62201;49.966;8.342;2024-03-07T13:36:20;11.88;;;8.88;;
61640;SDS011;62201;49.966;8.342;2024-03-07T13:38:50;13.90;;;9.52;;
61640;SDS011;62201;49.966;8.342;2024-03-07T13:41:21;13.90;;;8.75;;
61640;SDS011;62201;49.966;8.342;2024-03-07T13:43:47;11.77;;;8.63;;
61640;SDS011;62201;49.966;8.342;2024-03-07T13:46:13;13.73;;;9.50;;
61640;SDS011;62201;49.966;8.342;2024-03-07T13:48:40;13.68;;;8.80;;
61640;SDS011;62201;49.966;8.342;2024-03-07T13:51:07;13.50;;;8.23;;
61640;SDS011;62201;49.966;8.342;2024-03-07T13:53:34;11.35;;;7.63;;
61640;SDS011;62201;49.966;8.342;2024-03-07T14:03:59;10.70;;;7.90;;
61640;SDS011;62201;49.966;8.342;2024-03-07T14:06:50;10.23;;;7.68;;
61640;SDS011;62201;49.966;8.342;2024-03-07T14:15:36;11.68;;;7.63;;
61640;SDS011;62201;49.966;8.342;2024-03-07T14:24:10;13.15;;;7.95;;
61640;SDS011;62201;49.966;8.342;2024-03-07T14:33:00;13.70;;;6.68;;
61640;SDS011;62201;49.966;8.342;2024-03-07T14:35:39;10.30;;;7.68;;
61640;SDS011;62201;49.966;8.342;2024-03-07T14:38:51;10.57;;;8.10;;
61640;SDS011;62201;49.966;8.342;2024-03-07T14:41:19;11.07;;;7.82;;
61640;SDS011;62201;49.966;8.342;2024-03-07T14:43:48;11.25;;;7.75;;
61640;SDS011;62201;49.966;8.342;2024-03-07T14:46:15;11.05;;;7.20;;
61640;SDS011;62201;49.966;8.342;2024-03-07T14:48:42;10.45;;;7.50;;
61640;SDS011;62201;49.966;8.342;2024-03-07T14:51:09;10.68;;;7.30;;
61640;SDS011;62201;49.966;8.342;2024-03-07T14:53:38;11.15;;;7.63;;
61640;SDS011;62201;49.966;8.342;2024-03-07T14:56:05;10.57;;;6.60;;
61640;SDS011;62201;49.966;8.342;2024-03-07T14:58:30;11.45;;;7.97;;